Time;durP1;ratioP1;P1;durP2;ratioP2;P2;SDS_P1;SDS_P2;PMS_P1;PMS_P2;Temp;Humidity;BMP_temperature;BMP_pressure;BME280_temperature;BME280_humidity;BME280_pressure;Samples;Min_cycle;Max_cycle;Signal;HPM_P1;HPM_P2
2023/10/27 00:00:26;;;;;;;21.45;12.82;;;;;;;;;;8475076;28;20084;-88
2023/10/27 00:09:12;;;;;;;60.65;38.42;;;;;;;;;;8462913;28;20048;-89
2023/10/27 00:13:16;;;;;;;31.27;18.05;;;;;;;;;;8485470;28;20505;-94
2023/10/27 00:17:18;;;;;;;17.35;8.63;;;;;;;;;;8446291;28;20048;-95
2023/10/27 00:21:23;;;;;;;24.48;14.60;;;;;;;;;;8452208;28;20044;-95
2023/10/27 00:25:26;;;;;;;22.45;11.40;;;;;;;;;;8420609;28;20098;-94
2023/10/27 00:29:29;;;;;;;25.75;15.80;;;;;;;;;;8463062;28;20456;-93
2023/10/27 00:33:34;;;;;;;22.17;13.43;;;;;;;;;;8457076;28;20032;-94
2023/10/27 00:37:40;;;;;;;21.35;12.82;;;;;;;;;;8470711;28;20456;-95
2023/10/27 00:41:43;;;;;;;20.02;12.15;;;;;;;;;;8460275;28;20040;-89
2023/10/27 00:45:49;;;;;;;21.13;12.70;;;;;;;;;;8460317;28;20070;-91
2023/10/27 00:49:52;;;;;;;39.38;20.70;;;;;;;;;;8461644;28;20040;-90
2023/10/27 00:53:58;;;;;;;23.58;11.23;;;;;;;;;;8472821;28;20103;-87
2023/10/27 00:58:01;;;;;;;29.25;13.50;;;;;;;;;;8454492;28;20048;-94
2023/10/27 01:02:04;;;;;;;31.98;13.88;;;;;;;;;;8432325;28;20430;-90
2023/10/27 01:06:07;;;;;;;45.20;17.85;;;;;;;;;;8445248;28;20044;-92
2023/10/27 01:10:12;;;;;;;36.40;14.88;;;;;;;;;;8437870;28;20122;-91
2023/10/27 01:14:15;;;;;;;31.73;14.10;;;;;;;;;;8431882;28;20097;-90
2023/10/27 01:18:18;;;;;;;27.15;13.52;;;;;;;;;;8435136;28;20076;-87
2023/10/27 01:22:21;;;;;;;28.30;11.57;;;;;;;;;;8431936;28;20051;-89
2023/10/27 01:26:26;;;;;;;27.50;12.40;;;;;;;;;;8440749;28;20066;-90
2023/10/27 01:30:36;;;;;;;28.52;14.32;;;;;;;;;;8434559;28;20480;-94
2023/10/27 01:34:39;;;;;;;31.73;14.40;;;;;;;;;;8430393;28;20115;-89
2023/10/27 01:38:42;;;;;;;39.30;15.77;;;;;;;;;;8430985;28;20052;-91
2023/10/27 01:42:47;;;;;;;86.13;32.97;;;;;;;;;;8429652;28;20050;-92
2023/10/27 01:46:50;;;;;;;55.28;21.42;;;;;;;;;;8429523;28;20036;-90
2023/10/27 01:50:54;;;;;;;35.42;14.15;;;;;;;;;;8437898;28;20066;-90
2023/10/27 01:54:58;;;;;;;30.58;12.90;;;;;;;;;;8430627;28;20055;-95
2023/10/27 01:59:06;;;;;;;28.88;12.75;;;;;;;;;;8438566;28;20127;-95
2023/10/27 02:03:09;;;;;;;33.70;16.80;;;;;;;;;;8436744;28;20055;-91
2023/10/27 02:07:12;;;;;;;35.30;15.02;;;;;;;;;;8438982;28;20050;-89
2023/10/27 02:11:15;;;;;;;28.90;13.88;;;;;;;;;;8440246;28;20044;-91
2023/10/27 02:15:20;;;;;;;29.67;12.38;;;;;;;;;;8436336;28;20048;-95
2023/10/27 02:19:22;;;;;;;23.13;10.48;;;;;;;;;;8434014;28;20085;-95
2023/10/27 02:23:26;;;;;;;16.95;9.07;;;;;;;;;;8465932;28;20108;-93
2023/10/27 02:27:31;;;;;;;22.00;10.90;;;;;;;;;;8469255;28;20483;-90
2023/10/27 02:31:36;;;;;;;21.13;10.57;;;;;;;;;;8457247;28;20046;-95
2023/10/27 02:35:38;;;;;;;19.38;9.98;;;;;;;;;;8462312;28;20050;-96
2023/10/27 02:39:41;;;;;;;18.05;9.30;;;;;;;;;;8460055;28;20051;-91
2023/10/27 02:43:46;;;;;;;17.70;9.35;;;;;;;;;;8474230;28;20124;-92
2023/10/27 02:47:52;;;;;;;22.08;12.18;;;;;;;;;;8470071;28;20060;-90
2023/10/27 02:51:54;;;;;;;17.52;9.68;;;;;;;;;;8466741;28;20501;-93
2023/10/27 02:56:07;;;;;;;19.75;10.90;;;;;;;;;;8456475;28;20044;-90
2023/10/27 03:00:11;;;;;;;19.20;10.02;;;;;;;;;;8462142;28;20031;-92
2023/10/27 03:04:15;;;;;;;23.63;12.02;;;;;;;;;;8458216;28;20047;-95
2023/10/27 03:08:18;;;;;;;24.20;11.55;;;;;;;;;;8455500;28;20043;-95
2023/10/27 03:12:22;;;;;;;21.60;12.68;;;;;;;;;;8480334;28;20040;-91
2023/10/27 03:16:25;;;;;;;43.97;20.23;;;;;;;;;;8481699;28;20043;-90
2023/10/27 03:20:32;;;;;;;21.50;12.45;;;;;;;;;;8459317;28;20093;-93
2023/10/27 03:24:35;;;;;;;21.80;13.65;;;;;;;;;;8464607;28;20047;-93
2023/10/27 03:28:38;;;;;;;30.00;15.20;;;;;;;;;;8474994;28;20048;-90
2023/10/27 03:32:41;;;;;;;21.42;12.70;;;;;;;;;;8463735;28;20056;-90
2023/10/27 03:36:46;;;;;;;24.40;13.15;;;;;;;;;;8449580;28;20422;-93
2023/10/27 03:40:48;;;;;;;24.20;11.07;;;;;;;;;;8451605;28;20122;-93
2023/10/27 03:44:51;;;;;;;24.30;10.88;;;;;;;;;;8445028;28;20054;-90
2023/10/27 03:48:58;;;;;;;18.92;11.13;;;;;;;;;;8447088;28;20077;-92
2023/10/27 03:53:02;;;;;;;28.88;14.27;;;;;;;;;;8461674;28;20035;-95
2023/10/27 03:57:06;;;;;;;51.78;25.25;;;;;;;;;;8439064;28;20044;-94
2023/10/27 04:01:10;;;;;;;29.35;15.63;;;;;;;;;;8443928;28;20063;-92
2023/10/27 04:05:16;;;;;;;29.67;14.48;;;;;;;;;;8438181;28;20044;-93
2023/10/27 04:09:21;;;;;;;27.63;16.60;;;;;;;;;;8446786;28;20040;-95
2023/10/27 04:13:25;;;;;;;29.58;15.43;;;;;;;;;;8445970;28;20074;-89
2023/10/27 04:17:28;;;;;;;26.35;14.18;;;;;;;;;;8454629;28;20074;-90
2023/10/27 04:21:31;;;;;;;25.08;13.15;;;;;;;;;;8452689;28;20047;-94
2023/10/27 04:25:37;;;;;;;25.42;13.80;;;;;;;;;;8453484;28;20047;-94
2023/10/27 04:29:40;;;;;;;72.72;35.92;;;;;;;;;;8439731;28;20108;-95
2023/10/27 04:33:47;;;;;;;39.67;21.05;;;;;;;;;;8454484;28;20081;-89
2023/10/27 04:37:51;;;;;;;35.50;18.92;;;;;;;;;;8446581;28;20118;-91
2023/10/27 04:41:55;;;;;;;32.53;18.83;;;;;;;;;;8447423;28;20492;-91
2023/10/27 04:45:58;;;;;;;23.23;12.52;;;;;;;;;;8446504;28;20108;-95
2023/10/27 04:50:01;;;;;;;33.20;17.25;;;;;;;;;;8433564;28;20055;-95
2023/10/27 04:54:05;;;;;;;34.85;20.05;;;;;;;;;;8435143;28;20048;-92
2023/10/27 04:58:09;;;;;;;26.67;15.88;;;;;;;;;;8443036;28;20136;-89
2023/10/27 05:02:12;;;;;;;31.27;17.73;;;;;;;;;;8431028;28;20066;-94
2023/10/27 05:06:15;;;;;;;25.80;15.25;;;;;;;;;;8427384;28;20127;-92
2023/10/27 05:10:18;;;;;;;24.52;14.38;;;;;;;;;;8434376;28;20040;-89
2023/10/27 05:14:22;;;;;;;24.23;13.82;;;;;;;;;;8443547;28;20051;-91
2023/10/27 05:18:26;;;;;;;69.07;41.00;;;;;;;;;;8450427;28;20101;-94
2023/10/27 05:22:30;;;;;;;30.58;19.63;;;;;;;;;;8459173;28;20032;-90
2023/10/27 05:26:33;;;;;;;26.85;15.55;;;;;;;;;;8465366;28;20112;-95
2023/10/27 05:30:37;;;;;;;24.98;13.77;;;;;;;;;;8451802;28;20048;-95
2023/10/27 05:34:40;;;;;;;23.98;14.32;;;;;;;;;;8443631;28;20115;-94
2023/10/27 05:38:43;;;;;;;33.08;17.65;;;;;;;;;;8474568;28;20078;-90
2023/10/27 05:42:46;;;;;;;28.15;14.40;;;;;;;;;;8444321;28;20385;-94
2023/10/27 05:47:01;;;;;;;32.50;13.18;;;;;;;;;;8455565;28;20113;-92
2023/10/27 05:51:07;;;;;;;22.63;13.07;;;;;;;;;;8462547;28;20044;-93
2023/10/27 05:55:12;;;;;;;25.67;14.20;;;;;;;;;;8469652;28;20118;-89
2023/10/27 05:59:16;;;;;;;33.28;18.02;;;;;;;;;;8468257;28;20044;-93
2023/10/27 06:03:20;;;;;;;31.83;16.98;;;;;;;;;;8476993;28;20051;-89
2023/10/27 06:07:23;;;;;;;35.88;17.45;;;;;;;;;;8447108;28;20044;-93
2023/10/27 06:11:26;;;;;;;53.50;26.02;;;;;;;;;;8454252;28;20122;-90
2023/10/27 06:15:31;;;;;;;81.70;35.17;;;;;;;;;;8451968;28;20043;-94
2023/10/27 06:19:35;;;;;;;129.93;56.88;;;;;;;;;;8433362;28;20078;-91
2023/10/27 06:23:38;;;;;;;259.40;115.68;;;;;;;;;;8461842;28;20061;-90
2023/10/27 06:27:42;;;;;;;46.05;26.70;;;;;;;;;;8463064;28;20055;-90
2023/10/27 06:31:45;;;;;;;40.55;20.98;;;;;;;;;;8467311;28;20043;-92
2023/10/27 06:35:49;;;;;;;39.42;21.38;;;;;;;;;;8431826;28;20048;-91
2023/10/27 06:39:58;;;;;;;45.63;25.48;;;;;;;;;;8434790;28;20152;-90
2023/10/27 06:48:24;;;;;;;38.45;20.58;;;;;;;;;;8445556;28;20097;-96
2023/10/27 06:52:52;;;;;;;43.88;24.92;;;;;;;;;;8422415;28;20074;-94
2023/10/27 06:56:57;;;;;;;34.00;19.70;;;;;;;;;;8450719;28;20093;-95
2023/10/27 07:01:09;;;;;;;29.40;18.65;;;;;;;;;;8445356;28;20119;-96
2023/10/27 07:05:37;;;;;;;33.35;21.17;;;;;;;;;;8509403;22;20056;-94
2023/10/27 07:09:50;;;;;;;57.28;29.83;;;;;;;;;;8457184;28;20052;-93
2023/10/27 07:14:03;;;;;;;38.78;26.13;;;;;;;;;;8455020;28;20052;-96
2023/10/27 07:22:33;;;;;;;25.23;13.40;;;;;;;;;;8423227;28;20044;-93
2023/10/27 07:26:37;;;;;;;23.65;14.15;;;;;;;;;;8430099;28;20048;-95
2023/10/27 07:30:41;;;;;;;25.63;16.23;;;;;;;;;;8434465;28;20121;-95
2023/10/27 07:35:00;;;;;;;34.85;21.00;;;;;;;;;;8423846;28;20044;-92
2023/10/27 07:39:03;;;;;;;26.13;15.77;;;;;;;;;;8434005;28;20136;-92
2023/10/27 07:43:21;;;;;;;24.08;15.43;;;;;;;;;;8427678;28;20483;-94
2023/10/27 07:47:24;;;;;;;23.83;15.13;;;;;;;;;;8428420;28;20119;-93
2023/10/27 07:51:26;;;;;;;26.30;14.07;;;;;;;;;;8413094;28;20058;-94
2023/10/27 07:55:29;;;;;;;16.05;10.50;;;;;;;;;;8417793;28;20044;-91
2023/10/27 07:59:34;;;;;;;15.45;9.00;;;;;;;;;;8429781;28;20044;-94
2023/10/27 08:03:38;;;;;;;28.00;19.92;;;;;;;;;;8420631;28;20109;-90
2023/10/27 08:07:41;;;;;;;17.83;11.48;;;;;;;;;;8427150;28;20206;-95
2023/10/27 08:11:58;;;;;;;14.27;9.38;;;;;;;;;;8426560;28;20047;-94
2023/10/27 08:16:04;;;;;;;21.50;11.02;;;;;;;;;;8415952;28;20134;-92
2023/10/27 08:20:08;;;;;;;13.90;8.73;;;;;;;;;;8416187;28;20040;-92
2023/10/27 08:24:15;;;;;;;13.90;8.13;;;;;;;;;;8437263;28;20054;-91
2023/10/27 08:33:41;;;;;;;18.48;11.65;;;;;;;;;;8621188;22;20032;-90
2023/10/27 08:38:16;;;;;;;18.45;12.05;;;;;;;;;;8318082;28;20061;-92
2023/10/27 08:51:25;;;;;;;11.88;7.53;;;;;;;;;;8360573;28;20213;-92
2023/10/27 08:56:03;;;;;;;16.60;10.45;;;;;;;;;;8337796;28;20052;-91
2023/10/27 09:05:17;;;;;;;10.90;6.47;;;;;;;;;;8245243;28;20057;-92
2023/10/27 09:09:26;;;;;;;19.17;11.13;;;;;;;;;;8256841;28;20114;-92
2023/10/27 09:22:28;;;;;;;14.23;8.50;;;;;;;;;;8359407;28;20049;-90
2023/10/27 09:26:46;;;;;;;13.52;6.88;;;;;;;;;;8354770;28;20059;-95
2023/10/27 09:31:15;;;;;;;14.15;6.50;;;;;;;;;;8360981;28;20052;-96
2023/10/27 09:35:32;;;;;;;20.40;8.95;;;;;;;;;;8443149;22;20402;-95
2023/10/27 09:39:38;;;;;;;10.00;5.60;;;;;;;;;;8427784;28;20190;-93
2023/10/27 09:44:16;;;;;;;12.20;5.45;;;;;;;;;;8433912;28;20044;-91
2023/10/27 09:48:29;;;;;;;11.88;5.38;;;;;;;;;;8428207;28;20040;-94
2023/10/27 09:58:05;;;;;;;19.23;7.90;;;;;;;;;;8311904;28;20053;-90
2023/10/27 10:02:32;;;;;;;14.07;6.70;;;;;;;;;;8301584;28;20526;-94
2023/10/27 10:31:55;;;;;;;12.35;6.22;;;;;;;;;;8162945;29;20101;-90
2023/10/27 11:10:20;;;;;;;6.82;4.20;;;;;;;;;;8471118;22;20440;-89
2023/10/27 11:15:06;;;;;;;6.68;3.95;;;;;;;;;;8436464;28;20131;-90
2023/10/27 11:19:31;;;;;;;9.20;5.72;;;;;;;;;;8419195;28;20060;-91
2023/10/27 11:23:59;;;;;;;9.80;4.80;;;;;;;;;;8427758;28;20047;-91
2023/10/27 11:28:23;;;;;;;6.55;3.60;;;;;;;;;;8427528;28;20051;-91
2023/10/27 11:32:27;;;;;;;9.70;5.63;;;;;;;;;;8413237;28;20540;-90
2023/10/27 11:36:35;;;;;;;10.57;4.68;;;;;;;;;;8426446;28;20047;-91
2023/10/27 11:40:38;;;;;;;5.68;3.13;;;;;;;;;;8408749;28;20052;-92
2023/10/27 11:44:44;;;;;;;7.72;3.75;;;;;;;;;;8430675;28;20067;-92
2023/10/27 11:48:52;;;;;;;6.03;4.00;;;;;;;;;;8434055;28;20044;-91
2023/10/27 11:52:59;;;;;;;9.98;4.32;;;;;;;;;;8435556;28;20088;-92
2023/10/27 11:57:04;;;;;;;10.88;5.90;;;;;;;;;;8435053;28;20052;-90
2023/10/27 12:01:16;;;;;;;11.65;6.00;;;;;;;;;;8434399;28;20040;-91
2023/10/27 12:05:22;;;;;;;11.20;5.88;;;;;;;;;;8432573;28;20100;-91
2023/10/27 12:09:26;;;;;;;13.10;8.70;;;;;;;;;;8420049;28;20139;-93
2023/10/27 12:13:29;;;;;;;9.70;5.20;;;;;;;;;;8429101;28;20112;-92
2023/10/27 12:17:34;;;;;;;8.70;5.78;;;;;;;;;;8425225;28;20047;-89
2023/10/27 12:21:40;;;;;;;10.75;5.70;;;;;;;;;;8427772;28;20043;-91
2023/10/27 12:25:48;;;;;;;10.75;6.25;;;;;;;;;;8429548;28;20040;-90
2023/10/27 12:29:51;;;;;;;12.20;5.10;;;;;;;;;;8425895;28;20048;-90
2023/10/27 12:33:59;;;;;;;8.32;5.07;;;;;;;;;;8436759;28;20082;-90
2023/10/27 12:38:28;;;;;;;14.55;6.85;;;;;;;;;;8425138;28;20093;-92
2023/10/27 12:42:39;;;;;;;11.23;6.05;;;;;;;;;;8407279;28;20082;-95
2023/10/27 12:46:44;;;;;;;22.00;8.85;;;;;;;;;;8436333;28;20044;-94
2023/10/27 12:50:54;;;;;;;19.00;7.88;;;;;;;;;;8415048;28;20044;-90
2023/10/27 12:55:00;;;;;;;14.15;7.32;;;;;;;;;;8431264;28;20038;-93
2023/10/27 12:59:03;;;;;;;10.43;6.55;;;;;;;;;;8417986;28;20480;-90
2023/10/27 13:07:07;;;;;;;17.67;8.48;;;;;;;;;;8491650;22;20112;-90
2023/10/27 13:11:13;;;;;;;13.48;5.53;;;;;;;;;;8453377;28;20056;-89
2023/10/27 13:15:17;;;;;;;39.65;19.90;;;;;;;;;;8459167;28;20043;-90
2023/10/27 13:19:20;;;;;;;11.35;5.68;;;;;;;;;;8449056;28;20040;-87
2023/10/27 13:23:24;;;;;;;10.27;5.72;;;;;;;;;;8453313;28;20044;-89
2023/10/27 13:31:48;;;;;;;10.13;5.93;;;;;;;;;;8450920;28;20181;-92
2023/10/27 13:36:12;;;;;;;8.95;6.10;;;;;;;;;;8461671;28;20043;-95
2023/10/27 13:40:18;;;;;;;11.32;5.97;;;;;;;;;;8462994;28;20054;-91
2023/10/27 13:44:22;;;;;;;12.18;6.20;;;;;;;;;;8471421;28;20062;-95
2023/10/27 13:48:27;;;;;;;13.82;6.43;;;;;;;;;;8474898;28;20085;-95
2023/10/27 13:52:31;;;;;;;10.60;6.82;;;;;;;;;;8470883;28;20051;-89
2023/10/27 13:56:34;;;;;;;11.23;6.30;;;;;;;;;;8458199;28;20078;-89
2023/10/27 14:00:45;;;;;;;11.27;7.07;;;;;;;;;;8459694;27;20487;-94
2023/10/27 14:04:50;;;;;;;16.73;10.82;;;;;;;;;;8468974;28;20073;-93
2023/10/27 14:08:55;;;;;;;14.63;9.02;;;;;;;;;;8468246;28;20042;-95
2023/10/27 14:12:59;;;;;;;13.82;8.77;;;;;;;;;;8450171;27;20044;-87
2023/10/27 14:17:04;;;;;;;10.73;7.57;;;;;;;;;;8461767;28;20066;-94
2023/10/27 14:21:08;;;;;;;10.93;7.13;;;;;;;;;;8412521;22;20053;-93
2023/10/27 14:25:12;;;;;;;12.35;7.75;;;;;;;;;;8393892;28;20051;-89
2023/10/27 14:29:15;;;;;;;13.43;8.10;;;;;;;;;;8395035;28;20052;-93
2023/10/27 14:33:21;;;;;;;14.35;9.45;;;;;;;;;;8398953;28;20415;-89
2023/10/27 14:37:35;;;;;;;19.08;12.13;;;;;;;;;;8400778;28;20048;-93
2023/10/27 14:41:38;;;;;;;17.25;11.85;;;;;;;;;;8386590;28;20097;-91
2023/10/27 14:45:41;;;;;;;16.20;9.77;;;;;;;;;;8482888;22;20052;-89
2023/10/27 14:50:08;;;;;;;19.48;12.57;;;;;;;;;;8407213;28;20048;-88
2023/10/27 14:54:12;;;;;;;18.55;10.63;;;;;;;;;;8420556;28;20044;-90
2023/10/27 14:58:19;;;;;;;19.00;11.00;;;;;;;;;;8443845;22;20101;-93
2023/10/27 15:02:25;;;;;;;20.80;12.15;;;;;;;;;;8384942;28;20045;-90
2023/10/27 15:06:30;;;;;;;16.88;10.60;;;;;;;;;;8387091;28;20072;-89
2023/10/27 15:14:50;;;;;;;19.55;11.23;;;;;;;;;;8389032;28;20079;-93
2023/10/27 15:18:56;;;;;;;23.63;13.13;;;;;;;;;;8393784;28;20041;-87
2023/10/27 15:23:01;;;;;;;27.13;15.07;;;;;;;;;;8388356;28;20186;-88
2023/10/27 15:27:04;;;;;;;26.25;13.98;;;;;;;;;;8389729;28;20052;-88
2023/10/27 15:31:08;;;;;;;19.30;11.18;;;;;;;;;;8382897;28;20132;-87
2023/10/27 15:35:11;;;;;;;18.52;11.55;;;;;;;;;;8387389;28;20076;-94
2023/10/27 15:39:16;;;;;;;26.02;14.88;;;;;;;;;;8371966;28;20414;-92
2023/10/27 15:43:19;;;;;;;24.13;13.07;;;;;;;;;;8387509;28;20501;-87
2023/10/27 15:48:20;;;;;;;27.35;14.52;;;;;;;;;;8389138;28;20052;-95
2023/10/27 15:52:24;;;;;;;22.77;13.63;;;;;;;;;;8388702;28;20480;-90
2023/10/27 15:56:29;;;;;;;29.08;16.52;;;;;;;;;;8405901;28;20102;-91
2023/10/27 16:00:35;;;;;;;22.90;14.05;;;;;;;;;;8380201;28;20072;-91
2023/10/27 16:04:46;;;;;;;32.53;16.53;;;;;;;;;;8388743;28;20109;-95
2023/10/27 16:08:48;;;;;;;25.73;14.80;;;;;;;;;;8373197;28;20045;-87
2023/10/27 16:12:53;;;;;;;29.27;16.73;;;;;;;;;;8380209;28;20045;-88
2023/10/27 16:16:58;;;;;;;29.27;16.38;;;;;;;;;;8392875;28;20067;-93
2023/10/27 16:21:02;;;;;;;27.02;14.65;;;;;;;;;;8410182;28;20066;-94
2023/10/27 16:25:10;;;;;;;32.67;13.63;;;;;;;;;;8381658;28;20045;-88
2023/10/27 16:29:16;;;;;;;27.40;13.93;;;;;;;;;;8379769;28;20049;-89
2023/10/27 16:33:21;;;;;;;26.15;13.98;;;;;;;;;;8394821;28;20600;-96
2023/10/27 16:37:27;;;;;;;27.02;13.98;;;;;;;;;;8395120;28;20040;-92
2023/10/27 16:41:30;;;;;;;25.42;14.80;;;;;;;;;;8396881;28;20071;-95
2023/10/27 16:45:38;;;;;;;28.08;14.95;;;;;;;;;;8405053;28;20066;-88
2023/10/27 16:49:44;;;;;;;26.77;14.60;;;;;;;;;;8382397;28;20045;-89
2023/10/27 16:53:49;;;;;;;29.08;15.10;;;;;;;;;;8394785;28;20128;-86
2023/10/27 16:57:53;;;;;;;26.92;14.95;;;;;;;;;;8386277;28;20511;-86
2023/10/27 17:01:58;;;;;;;34.35;16.67;;;;;;;;;;8383503;28;20511;-88
2023/10/27 17:06:01;;;;;;;55.92;27.42;;;;;;;;;;8392455;28;20055;-89
2023/10/27 17:10:06;;;;;;;66.57;33.63;;;;;;;;;;8394108;28;20040;-88
2023/10/27 17:14:09;;;;;;;76.60;31.27;;;;;;;;;;8382288;28;20053;-90
2023/10/27 17:18:14;;;;;;;54.28;25.50;;;;;;;;;;8397402;28;20066;-90
2023/10/27 17:22:19;;;;;;;50.42;25.85;;;;;;;;;;8391730;28;20067;-87
2023/10/27 17:26:24;;;;;;;53.22;27.50;;;;;;;;;;8388437;28;20068;-91
2023/10/27 17:30:29;;;;;;;51.53;24.13;;;;;;;;;;8401619;28;20045;-87
2023/10/27 17:34:36;;;;;;;49.88;25.77;;;;;;;;;;8401832;28;20068;-87
2023/10/27 17:38:41;;;;;;;45.42;23.33;;;;;;;;;;8393194;28;20071;-91
2023/10/27 17:42:45;;;;;;;50.47;24.45;;;;;;;;;;8393475;28;20392;-86
2023/10/27 17:46:49;;;;;;;58.75;25.10;;;;;;;;;;8394579;28;20060;-87
2023/10/27 17:50:59;;;;;;;52.38;26.27;;;;;;;;;;8402179;28;20067;-88
2023/10/27 17:55:03;;;;;;;55.65;27.00;;;;;;;;;;8401682;28;20048;-90
2023/10/27 17:59:09;;;;;;;57.45;29.35;;;;;;;;;;8392441;28;20065;-86
2023/10/27 18:03:13;;;;;;;63.63;33.03;;;;;;;;;;8389315;28;20048;-86
2023/10/27 18:07:19;;;;;;;53.08;27.60;;;;;;;;;;8382515;28;20049;-88
2023/10/27 18:11:25;;;;;;;62.05;29.65;;;;;;;;;;8392038;28;20095;-86
2023/10/27 18:15:29;;;;;;;67.88;31.23;;;;;;;;;;8392794;28;20174;-88
2023/10/27 18:19:34;;;;;;;68.78;28.40;;;;;;;;;;8398763;28;20473;-87
2023/10/27 18:23:40;;;;;;;55.88;26.85;;;;;;;;;;8377428;28;20464;-88
2023/10/27 18:27:45;;;;;;;71.30;28.55;;;;;;;;;;8364897;28;20062;-88
2023/10/27 18:31:51;;;;;;;99.50;39.53;;;;;;;;;;8375770;28;20055;-94
2023/10/27 18:35:55;;;;;;;77.07;30.17;;;;;;;;;;8390351;28;20445;-87
2023/10/27 18:40:01;;;;;;;56.50;26.77;;;;;;;;;;8377366;28;20144;-86
2023/10/27 18:44:05;;;;;;;67.18;28.67;;;;;;;;;;8379513;28;20037;-85
2023/10/27 18:48:09;;;;;;;55.42;26.05;;;;;;;;;;8377688;28;20087;-88
2023/10/27 18:52:14;;;;;;;52.50;25.20;;;;;;;;;;8388608;28;20072;-86
2023/10/27 18:56:20;;;;;;;50.22;24.55;;;;;;;;;;8384404;28;20047;-86
2023/10/27 19:00:24;;;;;;;49.17;23.90;;;;;;;;;;8386374;28;20396;-87
2023/10/27 19:04:34;;;;;;;48.50;23.20;;;;;;;;;;8383501;28;20402;-87
2023/10/27 19:08:38;;;;;;;47.95;21.77;;;;;;;;;;8383419;28;20488;-86
2023/10/27 19:12:44;;;;;;;46.65;22.75;;;;;;;;;;8389286;28;20045;-87
2023/10/27 19:16:48;;;;;;;45.45;21.58;;;;;;;;;;8394594;28;20097;-89
2023/10/27 19:20:53;;;;;;;45.78;22.17;;;;;;;;;;8398095;28;20131;-87
2023/10/27 19:24:57;;;;;;;44.80;21.95;;;;;;;;;;8389752;28;20123;-88
2023/10/27 19:29:03;;;;;;;49.72;22.98;;;;;;;;;;8384960;28;20512;-87
2023/10/27 19:33:08;;;;;;;41.58;20.60;;;;;;;;;;8369430;28;20041;-86
2023/10/27 19:37:15;;;;;;;39.85;19.00;;;;;;;;;;8388872;28;20123;-88
2023/10/27 19:41:19;;;;;;;35.67;17.48;;;;;;;;;;8396408;28;20045;-86
2023/10/27 19:45:24;;;;;;;44.95;19.60;;;;;;;;;;8384112;28;20048;-87
2023/10/27 19:49:29;;;;;;;39.00;18.08;;;;;;;;;;8389885;28;20063;-85
2023/10/27 19:53:34;;;;;;;41.67;18.27;;;;;;;;;;8398727;28;20059;-86
2023/10/27 19:57:39;;;;;;;44.35;20.75;;;;;;;;;;8397531;28;20186;-88
2023/10/27 20:01:44;;;;;;;44.28;21.10;;;;;;;;;;8390788;28;20123;-87
2023/10/27 20:05:50;;;;;;;47.78;21.20;;;;;;;;;;8398219;28;20119;-88
2023/10/27 20:09:55;;;;;;;43.53;21.60;;;;;;;;;;8397977;28;20050;-87
2023/10/27 20:13:59;;;;;;;48.92;21.48;;;;;;;;;;8386801;28;20049;-86
2023/10/27 20:18:07;;;;;;;46.70;21.83;;;;;;;;;;8397390;28;20063;-87
2023/10/27 20:22:10;;;;;;;52.92;22.23;;;;;;;;;;8384065;28;20045;-90
2023/10/27 20:26:14;;;;;;;58.05;23.00;;;;;;;;;;8394022;28;20120;-89
2023/10/27 20:30:17;;;;;;;52.17;21.02;;;;;;;;;;8384051;28;20048;-91
2023/10/27 20:34:22;;;;;;;56.83;21.50;;;;;;;;;;8379064;28;20119;-87
2023/10/27 20:38:25;;;;;;;52.00;21.80;;;;;;;;;;8397887;28;20444;-86
2023/10/27 20:42:29;;;;;;;53.55;21.88;;;;;;;;;;8396887;28;20061;-86
2023/10/27 20:46:32;;;;;;;49.83;20.50;;;;;;;;;;8383920;28;20056;-90
2023/10/27 20:50:36;;;;;;;50.03;20.50;;;;;;;;;;8396577;28;20044;-89
2023/10/27 20:54:39;;;;;;;50.00;20.42;;;;;;;;;;8383241;28;20448;-86
2023/10/27 20:58:42;;;;;;;45.92;20.23;;;;;;;;;;8396371;28;20508;-86
2023/10/27 21:02:47;;;;;;;42.83;18.10;;;;;;;;;;8382808;28;20041;-87
2023/10/27 21:06:51;;;;;;;50.60;19.38;;;;;;;;;;8391794;28;20049;-87
2023/10/27 21:10:54;;;;;;;45.90;19.08;;;;;;;;;;8395774;28;20506;-89
2023/10/27 21:14:57;;;;;;;51.40;19.92;;;;;;;;;;8395739;28;20044;-86
2023/10/27 21:19:00;;;;;;;51.80;20.33;;;;;;;;;;8376332;28;20076;-86
2023/10/27 21:23:08;;;;;;;47.83;18.65;;;;;;;;;;8387928;28;20045;-87
2023/10/27 21:27:12;;;;;;;48.65;19.50;;;;;;;;;;8395319;28;20049;-86
2023/10/27 21:31:15;;;;;;;53.05;19.50;;;;;;;;;;8395276;28;20044;-86
2023/10/27 21:35:17;;;;;;;48.85;18.48;;;;;;;;;;8383031;28;20135;-86
2023/10/27 21:39:22;;;;;;;46.20;17.63;;;;;;;;;;8394828;28;20448;-87
2023/10/27 21:43:25;;;;;;;40.35;15.95;;;;;;;;;;8394811;28;20051;-86
2023/10/27 21:47:28;;;;;;;40.63;18.23;;;;;;;;;;8394230;28;20044;-85
2023/10/27 21:51:31;;;;;;;37.58;15.43;;;;;;;;;;8394198;28;20516;-87
2023/10/27 21:55:35;;;;;;;30.50;15.18;;;;;;;;;;8386182;28;20049;-86
2023/10/27 21:59:38;;;;;;;35.55;15.75;;;;;;;;;;8384837;28;20064;-86
2023/10/27 22:03:42;;;;;;;42.92;16.35;;;;;;;;;;8389675;28;20478;-86
2023/10/27 22:07:45;;;;;;;38.67;15.70;;;;;;;;;;8400761;28;20110;-86
2023/10/27 22:11:50;;;;;;;38.17;15.63;;;;;;;;;;8400159;28;20060;-86
2023/10/27 22:15:53;;;;;;;43.05;16.50;;;;;;;;;;8400236;28;20063;-86
2023/10/27 22:19:56;;;;;;;39.55;16.40;;;;;;;;;;8400067;28;20127;-86
2023/10/27 22:23:58;;;;;;;33.17;15.05;;;;;;;;;;8399974;28;20389;-86
2023/10/27 22:28:04;;;;;;;37.90;16.08;;;;;;;;;;8400744;28;20052;-94
2023/10/27 22:32:07;;;;;;;35.80;14.88;;;;;;;;;;8401887;28;20052;-88
2023/10/27 22:36:12;;;;;;;37.58;16.08;;;;;;;;;;8400584;28;20123;-88
2023/10/27 22:40:15;;;;;;;36.10;15.07;;;;;;;;;;8400657;28;20051;-88
2023/10/27 22:44:20;;;;;;;39.53;15.32;;;;;;;;;;8397087;28;20044;-89
2023/10/27 22:48:22;;;;;;;36.00;15.45;;;;;;;;;;8400471;28;20496;-88
2023/10/27 22:52:26;;;;;;;31.70;14.52;;;;;;;;;;8394492;28;20450;-87
2023/10/27 22:56:28;;;;;;;35.85;14.85;;;;;;;;;;8399850;28;20040;-90
2023/10/27 23:00:33;;;;;;;27.73;13.07;;;;;;;;;;8400026;28;20032;-87
2023/10/27 23:04:35;;;;;;;29.42;12.60;;;;;;;;;;8400327;28;20098;-87
2023/10/27 23:08:38;;;;;;;29.95;12.77;;;;;;;;;;8399641;28;20467;-88
2023/10/27 23:12:42;;;;;;;27.25;12.00;;;;;;;;;;8399845;28;20040;-88
2023/10/27 23:16:46;;;;;;;29.50;12.02;;;;;;;;;;8398189;28;20085;-88
2023/10/27 23:20:52;;;;;;;31.65;12.90;;;;;;;;;;8399202;28;20047;-87
2023/10/27 23:24:55;;;;;;;29.15;12.77;;;;;;;;;;8399240;28;20424;-87
2023/10/27 23:28:58;;;;;;;34.20;14.02;;;;;;;;;;8399186;28;20044;-88
2023/10/27 23:33:04;;;;;;;26.20;11.77;;;;;;;;;;8399267;28;20404;-87
2023/10/27 23:37:08;;;;;;;25.23;11.65;;;;;;;;;;8398759;28;20040;-87
2023/10/27 23:41:11;;;;;;;28.33;12.02;;;;;;;;;;8398412;28;20036;-87
2023/10/27 23:45:15;;;;;;;35.17;13.40;;;;;;;;;;8398745;28;20048;-89
2023/10/27 23:49:20;;;;;;;30.27;12.88;;;;;;;;;;8398273;28;20036;-88
2023/10/27 23:53:24;;;;;;;26.05;10.88;;;;;;;;;;8398425;28;20058;-87
2023/10/27 23:57:27;;;;;;;27.92;12.20;;;;;;;;;;8398258;28;20102;-87
